createdAt,value
2022-09-28T00:01:09.668Z,99185.06
2022-09-28T00:04:12.188Z,99187.91
2022-09-28T00:07:14.107Z,99186.31
2022-09-28T00:10:16.410Z,99182.56
2022-09-28T00:13:18.598Z,99187.03
2022-09-28T00:16:22.549Z,99167.94
2022-09-28T00:19:24.671Z,99155.53
2022-09-28T00:22:28.059Z,99155.53
2022-09-28T00:25:29.994Z,99157.75
2022-09-28T00:28:32.765Z,99159.97
2022-09-28T00:31:35.427Z,99156.47
2022-09-28T00:34:41.240Z,99164.66
2022-09-28T00:37:43.439Z,99160.44
2022-09-28T00:40:46.790Z,99163.78
2022-09-28T00:43:48.802Z,99173.38
2022-09-28T00:46:56.780Z,99168.28
2022-09-28T00:50:05.072Z,99175.44
2022-09-28T00:53:14.595Z,99174.09
2022-09-28T00:56:19.170Z,99168.28
2022-09-28T00:59:24.668Z,99164.06
2022-09-28T01:02:26.702Z,99176.69
2022-09-28T01:05:29.515Z,99172.97
2022-09-28T01:08:32.653Z,99169.19
2022-09-28T01:11:36.010Z,99170.13
2022-09-28T01:14:39.652Z,99178.37
2022-09-28T01:17:53.241Z,99192.69
2022-09-28T01:21:01.664Z,99180.31
2022-09-28T01:24:20.075Z,99175.72
2022-09-28T01:27:29.835Z,99188.06
2022-09-28T01:30:37.431Z,99178.13
2022-09-28T01:33:41.927Z,99190.66
2022-09-28T01:36:47.931Z,99193.84
2022-09-28T01:39:52.716Z,99204.44
2022-09-28T01:42:57.603Z,99196.78
2022-09-28T01:46:07.983Z,99196.38
2022-09-28T01:49:25.839Z,99199.59
2022-09-28T01:52:35.143Z,99209.75
2022-09-28T01:55:41.785Z,99214.50
2022-09-28T01:58:50.749Z,99212.84
2022-09-28T02:02:12.528Z,99215.22
2022-09-28T02:05:20.030Z,99208.25
2022-09-28T02:08:26.853Z,99210.06
2022-09-28T02:11:29.509Z,99201.84
2022-09-28T02:14:34.100Z,99209.50
2022-09-28T02:17:36.657Z,99200.72
2022-09-28T02:20:39.820Z,99202.41
2022-09-28T02:23:47.479Z,99198.50
2022-09-28T02:26:50.617Z,99204.91
2022-09-28T02:29:53.201Z,99212.81
2022-09-28T02:32:57.631Z,99216.87
2022-09-28T02:36:00.677Z,99211.19
2022-09-28T02:39:03.873Z,99211.31
2022-09-28T02:42:11.873Z,99218.69
2022-09-28T02:45:24.642Z,99217.31
2022-09-28T02:48:55.839Z,99216.47
2022-09-28T02:52:19.911Z,99214.38
2022-09-28T02:55:33.844Z,99218.97
2022-09-28T02:58:42.107Z,99222.59
2022-09-28T03:01:58.399Z,99220.06
2022-09-28T03:05:03.941Z,99229.25
2022-09-28T03:08:11.828Z,99237.63
2022-09-28T03:11:16.682Z,99240.97
2022-09-28T03:14:21.769Z,99244.63
2022-09-28T03:17:24.414Z,99252.56
2022-09-28T03:20:27.001Z,99240.44
2022-09-28T03:23:29.430Z,99243.22
2022-09-28T03:26:31.943Z,99257.13
2022-09-28T03:29:34.576Z,99260.75
2022-09-28T03:32:37.452Z,99252.66
2022-09-28T03:35:39.861Z,99241.94
2022-09-28T03:38:42.098Z,99246.37
2022-09-28T03:41:45.453Z,99253.22
2022-09-28T03:44:47.471Z,99250.56
2022-09-28T03:47:50.049Z,99244.88
2022-09-28T03:50:54.956Z,99237.91
2022-09-28T03:53:58.489Z,99244.16
2022-09-28T03:57:01.139Z,99259.22
2022-09-28T04:00:04.872Z,99251.84
2022-09-28T04:03:15.546Z,99248.78
2022-09-28T04:06:18.038Z,99250.44
2022-09-28T04:09:19.936Z,99252.25
2022-09-28T04:12:22.098Z,99243.19
2022-09-28T04:15:24.562Z,99242.09
2022-09-28T04:18:26.833Z,99238.03
2022-09-28T04:21:30.684Z,99242.34
2022-09-28T04:24:33.649Z,99253.63
2022-09-28T04:27:54.333Z,99251.94
2022-09-28T04:30:56.577Z,99250.97
2022-09-28T04:33:58.669Z,99246.81
2022-09-28T04:37:00.833Z,99243.31
2022-09-28T04:40:03.316Z,99242.19
2022-09-28T04:43:06.427Z,99246.91
2022-09-28T04:46:10.158Z,99251.47
2022-09-28T04:49:12.579Z,99255.34
2022-09-28T04:52:18.315Z,99246.31
2022-09-28T04:55:22.564Z,99229.53
2022-09-28T04:58:24.508Z,99236.81
2022-09-28T05:01:26.813Z,99230.81
2022-09-28T05:04:30.955Z,99233.31
2022-09-28T05:07:34.031Z,99240.97
2022-09-28T05:10:36.860Z,99250.84
2022-09-28T05:13:45.432Z,99251.25
2022-09-28T05:16:48.882Z,99258.31
2022-09-28T05:19:52.927Z,99259.13
2022-09-28T05:22:55.904Z,99250.47
2022-09-28T05:26:00.890Z,99252.41
2022-09-28T05:29:03.303Z,99249.28
2022-09-28T05:32:07.863Z,99255.94
2022-09-28T05:35:11.178Z,99256.13
2022-09-28T05:38:13.494Z,99263.06
2022-09-28T05:41:15.420Z,99268.25
2022-09-28T05:44:17.668Z,99261.09
2022-09-28T05:47:19.869Z,99263.66
2022-09-28T05:50:22.441Z,99251.44
2022-09-28T05:53:24.858Z,99255.75
2022-09-28T05:56:29.524Z,99248.19
2022-09-28T05:59:31.588Z,99248.88
2022-09-28T06:02:33.970Z,99244.97
2022-09-28T06:05:37.107Z,99242.12
2022-09-28T06:08:42.891Z,99243.56
2022-09-28T06:11:45.944Z,99245.50
2022-09-28T06:14:49.432Z,99235.47
2022-09-28T06:17:58.501Z,99244.66
2022-09-28T06:21:02.568Z,99240.69
2022-09-28T06:24:05.524Z,99239.22
2022-09-28T06:27:07.506Z,99241.03
2022-09-28T06:30:12.137Z,99238.78
2022-09-28T06:33:15.422Z,99244.53
2022-09-28T06:36:18.035Z,99239.16
2022-09-28T06:39:20.101Z,99246.78
2022-09-28T06:42:22.917Z,99251.44
2022-09-28T06:45:31.775Z,99255.69
2022-09-28T06:48:36.353Z,99255.69
2022-09-28T06:51:38.327Z,99253.34
2022-09-28T06:54:41.935Z,99263.81
2022-09-28T06:57:44.055Z,99264.84
2022-09-28T07:00:47.362Z,99265.50
2022-09-28T07:03:53.609Z,99266.84
2022-09-28T07:06:59.068Z,99267.41
2022-09-28T07:10:03.201Z,99265.91
2022-09-28T07:13:09.521Z,99260.53
2022-09-28T07:16:13.547Z,99258.97
2022-09-28T07:19:16.564Z,99259.59
2022-09-28T07:22:23.238Z,99266.47
2022-09-28T07:25:36.343Z,99262.34
2022-09-28T07:28:41.470Z,99261.53
2022-09-28T07:31:43.997Z,99248.38
2022-09-28T07:34:48.640Z,99252.00
2022-09-28T07:38:05.409Z,99252.81
2022-09-28T07:41:14.830Z,99251.66
2022-09-28T07:44:19.087Z,99254.22
2022-09-28T07:47:30.817Z,99244.94
2022-09-28T07:50:43.152Z,99247.78
2022-09-28T07:53:45.799Z,99244.94
2022-09-28T07:56:49.714Z,99253.81
2022-09-28T07:59:53.590Z,99246.19
2022-09-28T08:02:59.210Z,99256.16
2022-09-28T08:06:03.624Z,99262.34
2022-09-28T08:09:05.896Z,99266.66
2022-09-28T08:12:21.817Z,99257.84
2022-09-28T08:15:24.472Z,99260.84
2022-09-28T08:18:27.077Z,99253.16
2022-09-28T08:21:47.373Z,99231.31
2022-09-28T08:24:49.679Z,99223.28
2022-09-28T08:27:52.270Z,99224.81
2022-09-28T08:30:55.236Z,99224.66
2022-09-28T08:33:58.303Z,99220.97
2022-09-28T08:37:02.529Z,99221.47
2022-09-28T08:40:06.206Z,99215.47
2022-09-28T08:43:20.752Z,99223.63
2022-09-28T08:46:31.674Z,99237.09
2022-09-28T08:49:37.241Z,99239.00
2022-09-28T08:52:40.190Z,99240.91
2022-09-28T08:55:42.851Z,99245.41
2022-09-28T08:58:48.180Z,99240.69
2022-09-28T09:01:58.153Z,99241.72
2022-09-28T09:05:02.616Z,99236.34
2022-09-28T09:08:06.168Z,99236.69
2022-09-28T09:11:08.264Z,99231.69
2022-09-28T09:14:19.855Z,99229.81
2022-09-28T09:17:28.765Z,99233.97
2022-09-28T09:20:50.044Z,99227.06
2022-09-28T09:23:56.905Z,99226.66
2022-09-28T09:27:05.806Z,99225.28
2022-09-28T09:30:11.419Z,99221.59
2022-09-28T09:33:30.838Z,99224.03
2022-09-28T09:36:47.703Z,99216.53
2022-09-28T09:39:53.126Z,99221.66
2022-09-28T09:43:02.043Z,99207.25
2022-09-28T09:46:19.424Z,99212.28
2022-09-28T09:49:38.926Z,99221.63
2022-09-28T09:52:45.154Z,99226.91
2022-09-28T09:55:50.434Z,99219.16
2022-09-28T09:58:59.163Z,99223.87
2022-09-28T10:02:20.615Z,99221.84
2022-09-28T10:05:29.439Z,99222.06
2022-09-28T10:08:34.550Z,99211.59
2022-09-28T10:11:39.436Z,99221.53
2022-09-28T10:14:44.985Z,99220.44
2022-09-28T10:17:49.034Z,99218.91
2022-09-28T10:20:58.131Z,99227.25
2022-09-28T10:24:02.825Z,99220.78
2022-09-28T10:27:07.625Z,99227.44
2022-09-28T10:30:10.219Z,99223.16
2022-09-28T10:33:43.885Z,99227.28
2022-09-28T10:36:48.898Z,99219.88
2022-09-28T10:39:55.810Z,99216.59
2022-09-28T10:43:01.125Z,99219.72
2022-09-28T10:46:06.406Z,99226.59
2022-09-28T10:49:15.541Z,99218.81
2022-09-28T10:52:38.281Z,99228.09
2022-09-28T10:55:40.722Z,99226.47
2022-09-28T10:58:43.076Z,99219.69
2022-09-28T11:01:45.739Z,99201.34
2022-09-28T11:04:53.748Z,99208.97
2022-09-28T11:07:57.687Z,99201.44
2022-09-28T11:11:04.110Z,99193.34
2022-09-28T11:14:18.123Z,99201.47
2022-09-28T11:17:40.439Z,99198.16
2022-09-28T11:20:45.331Z,99191.75
2022-09-28T11:24:05.678Z,99191.59
2022-09-28T11:27:19.025Z,99195.34
2022-09-28T11:30:23.270Z,99189.53
2022-09-28T11:33:31.130Z,99187.69
2022-09-28T11:36:51.974Z,99185.19
2022-09-28T11:40:03.110Z,99187.59
2022-09-28T11:43:11.473Z,99184.97
2022-09-28T11:46:25.920Z,99184.56
2022-09-28T11:49:47.718Z,99190.06
2022-09-28T11:52:56.157Z,99181.88
2022-09-28T11:56:09.070Z,99180.31
2022-09-28T11:59:14.803Z,99178.22
2022-09-28T12:02:22.107Z,99178.41
2022-09-28T12:05:26.859Z,99164.66
2022-09-28T12:08:37.370Z,99161.59
2022-09-28T12:11:43.921Z,99157.31
2022-09-28T12:14:48.495Z,99141.59
2022-09-28T12:17:50.629Z,99137.06
2022-09-28T12:21:04.434Z,99132.78
2022-09-28T12:24:16.017Z,99140.69
2022-09-28T12:27:47.390Z,99132.34
2022-09-28T12:30:49.904Z,99136.25
2022-09-28T12:33:52.110Z,99129.94
2022-09-28T12:37:13.197Z,99129.66
2022-09-28T12:40:18.390Z,99118.22
2022-09-28T12:43:20.882Z,99116.28
2022-09-28T12:46:22.934Z,99112.19
2022-09-28T12:53:13.929Z,99103.75
2022-09-28T12:56:22.377Z,99098.12
2022-09-28T12:59:46.356Z,99098.97
2022-09-28T13:03:07.218Z,99103.88
2022-09-28T13:06:25.609Z,99099.53
2022-09-28T13:09:31.392Z,99109.69
2022-09-28T13:12:47.226Z,99104.03
2022-09-28T13:15:49.532Z,99097.59
2022-09-28T13:18:54.535Z,99099.50
2022-09-28T13:22:15.365Z,99095.75
2022-09-28T13:25:19.223Z,99090.94
2022-09-28T13:28:26.241Z,99090.97
2022-09-28T13:31:34.927Z,99106.50
2022-09-28T13:34:39.634Z,99110.06
2022-09-28T13:37:41.721Z,99106.31
2022-09-28T13:41:10.425Z,99096.41
2022-09-28T13:44:20.197Z,99102.37
2022-09-28T13:47:38.400Z,99098.06
2022-09-28T13:50:55.701Z,99103.03
2022-09-28T13:54:06.865Z,99098.19
2022-09-28T13:57:25.190Z,99092.34
2022-09-28T14:00:30.787Z,99098.97
2022-09-28T14:03:45.286Z,99088.88
2022-09-28T14:06:59.242Z,99091.47
2022-09-28T14:10:10.752Z,99083.91
2022-09-28T14:13:12.839Z,99103.00
2022-09-28T14:16:18.090Z,99099.19
2022-09-28T14:19:24.894Z,99099.22
2022-09-28T14:22:27.135Z,99094.56
2022-09-28T14:25:33.263Z,99089.38
2022-09-28T14:28:50.364Z,99085.09
2022-09-28T14:31:52.501Z,99091.41
2022-09-28T14:34:56.864Z,99085.09
2022-09-28T14:38:18.867Z,99079.63
2022-09-28T14:41:31.335Z,99079.53
2022-09-28T14:44:53.345Z,99088.69
2022-09-28T14:48:12.376Z,99072.44
2022-09-28T14:51:26.728Z,99078.06
2022-09-28T14:54:48.117Z,99067.97
2022-09-28T14:57:55.640Z,99080.03
2022-09-28T15:01:03.428Z,99076.03
2022-09-28T15:04:09.607Z,99071.00
2022-09-28T15:07:22.566Z,99070.03
2022-09-28T15:10:32.158Z,99069.41
2022-09-28T15:13:34.507Z,99066.19
2022-09-28T15:16:36.674Z,99060.41
2022-09-28T15:19:41.234Z,99061.63
2022-09-28T15:22:46.865Z,99061.19
2022-09-28T15:25:53.098Z,99062.44
2022-09-28T15:29:15.718Z,99051.00
2022-09-28T15:32:24.706Z,99056.16
2022-09-28T15:35:27.503Z,99051.56
2022-09-28T15:38:32.377Z,99051.94
2022-09-28T15:41:34.789Z,99046.66
2022-09-28T15:44:39.641Z,99051.56
2022-09-28T15:47:43.668Z,99042.53
2022-09-28T15:51:12.372Z,99054.72
2022-09-28T15:54:19.331Z,99061.06
2022-09-28T15:57:30.434Z,99064.19
2022-09-28T16:00:33.912Z,99056.25
2022-09-28T16:03:36.157Z,99051.81
2022-09-28T16:06:40.403Z,99053.25
2022-09-28T16:09:56.983Z,99055.81
2022-09-28T16:13:10.503Z,99054.97
2022-09-28T16:16:16.768Z,99055.56
2022-09-28T16:19:24.048Z,99053.31
2022-09-28T16:22:28.827Z,99051.41
2022-09-28T16:25:33.232Z,99057.81
2022-09-28T16:28:36.423Z,99056.22
2022-09-28T16:31:41.428Z,99051.59
2022-09-28T16:34:43.620Z,99054.00
2022-09-28T16:37:47.115Z,99058.38
2022-09-28T16:40:51.299Z,99060.56
2022-09-28T16:44:02.395Z,99057.38
2022-09-28T16:47:06.330Z,99066.84
2022-09-28T16:50:12.534Z,99065.19
2022-09-28T16:53:34.385Z,99057.97
2022-09-28T16:56:37.064Z,99062.87
2022-09-28T16:59:39.669Z,99071.09
2022-09-28T17:02:46.742Z,99071.75
2022-09-28T17:05:50.428Z,99078.56
2022-09-28T17:08:52.534Z,99077.91
2022-09-28T17:11:56.992Z,99081.25
2022-09-28T17:15:00.050Z,99068.88
2022-09-28T17:18:02.666Z,99071.37
2022-09-28T17:21:06.114Z,99061.88
2022-09-28T17:24:09.216Z,99065.50
2022-09-28T17:27:15.363Z,99068.72
2022-09-28T17:30:23.509Z,99060.84
2022-09-28T17:33:29.253Z,99067.06
2022-09-28T17:36:31.544Z,99066.25
2022-09-28T17:39:33.481Z,99071.91
2022-09-28T17:42:36.119Z,99078.25
2022-09-28T17:45:41.566Z,99081.09
2022-09-28T17:48:46.943Z,99073.28
2022-09-28T17:51:50.342Z,99073.00
2022-09-28T17:54:53.895Z,99072.00
2022-09-28T17:57:55.966Z,99083.84
2022-09-28T18:00:58.706Z,99087.16
2022-09-28T18:04:01.846Z,99089.22
2022-09-28T18:07:03.941Z,99092.69
2022-09-28T18:10:06.742Z,99091.47
2022-09-28T18:13:09.083Z,99111.69
2022-09-28T18:16:11.819Z,99101.34
2022-09-28T18:19:13.941Z,99099.69
2022-09-28T18:22:16.379Z,99095.03
2022-09-28T18:25:18.444Z,99100.03
2022-09-28T18:28:21.591Z,99097.81
2022-09-28T18:31:23.661Z,99105.94
2022-09-28T18:34:26.101Z,99109.91
2022-09-28T18:37:28.151Z,99103.19
2022-09-28T18:40:30.584Z,99102.34
2022-09-28T18:43:35.721Z,99103.13
2022-09-28T18:46:39.402Z,99109.97
2022-09-28T18:49:46.423Z,99111.16
2022-09-28T18:52:49.396Z,99112.69
2022-09-28T18:55:51.476Z,99112.53
2022-09-28T18:58:53.859Z,99117.84
2022-09-28T19:01:55.932Z,99121.53
2022-09-28T19:04:59.033Z,99121.84
2022-09-28T19:08:01.186Z,99119.66
2022-09-28T19:11:14.235Z,99126.59
2022-09-28T19:14:16.535Z,99123.94
2022-09-28T19:17:18.935Z,99124.25
2022-09-28T19:20:21.309Z,99129.19
2022-09-28T19:23:26.660Z,99124.75
2022-09-28T19:26:29.145Z,99126.06
2022-09-28T19:29:31.495Z,99120.59
2022-09-28T19:32:33.483Z,99118.94
2022-09-28T19:35:35.755Z,99115.81
2022-09-28T19:38:38.494Z,99120.22
2022-09-28T19:41:43.440Z,99115.28
2022-09-28T19:44:47.381Z,99120.06
2022-09-28T19:47:49.738Z,99120.84
2022-09-28T19:51:10.218Z,99111.13
2022-09-28T19:54:13.633Z,99111.78
2022-09-28T19:57:16.260Z,99127.97
2022-09-28T20:00:18.889Z,99115.91
2022-09-28T20:03:21.226Z,99121.06
2022-09-28T20:06:23.672Z,99105.12
2022-09-28T20:09:26.018Z,99107.78
2022-09-28T20:12:28.115Z,99097.09
2022-09-28T20:15:31.299Z,99095.69
2022-09-28T20:18:37.295Z,99103.44
2022-09-28T20:21:39.631Z,99107.38
2022-09-28T20:24:41.609Z,99102.91
2022-09-28T20:27:44.213Z,99098.91
2022-09-28T20:30:46.226Z,99097.31
2022-09-28T20:33:49.039Z,99096.59
2022-09-28T20:36:50.993Z,99102.06
2022-09-28T20:39:53.308Z,99097.78
2022-09-28T20:42:55.708Z,99091.00
2022-09-28T20:45:58.767Z,99090.78
2022-09-28T20:49:00.866Z,99089.84
2022-09-28T20:52:03.218Z,99089.19
2022-09-28T20:55:05.363Z,99074.69
2022-09-28T20:58:07.821Z,99072.56
2022-09-28T21:01:20.145Z,99070.06
2022-09-28T21:04:22.582Z,99072.69
2022-09-28T21:07:24.580Z,99070.53
2022-09-28T21:10:30.287Z,99066.03
2022-09-28T21:13:32.236Z,99070.13
2022-09-28T21:16:35.124Z,99070.81
2022-09-28T21:19:37.206Z,99066.66
2022-09-28T21:22:39.624Z,99065.56
2022-09-28T21:25:41.986Z,99064.69
2022-09-28T21:28:46.025Z,99048.28
2022-09-28T21:31:47.998Z,99053.75
2022-09-28T21:34:50.563Z,99061.34
2022-09-28T21:37:52.702Z,99063.00
2022-09-28T21:40:56.830Z,99058.38
2022-09-28T21:43:59.339Z,99061.50
2022-09-28T21:47:01.716Z,99060.19
2022-09-28T21:50:03.888Z,99059.53
2022-09-28T21:53:06.251Z,99054.22
2022-09-28T21:56:10.057Z,99054.97
2022-09-28T21:59:12.437Z,99055.13
2022-09-28T22:02:14.752Z,99067.94
2022-09-28T22:05:17.112Z,99065.13
2022-09-28T22:08:19.603Z,99069.16
2022-09-28T22:11:23.141Z,99056.09
2022-09-28T22:14:25.101Z,99061.41
2022-09-28T22:17:27.473Z,99064.00
2022-09-28T22:20:29.497Z,99056.34
2022-09-28T22:23:32.304Z,99065.34
2022-09-28T22:26:35.626Z,99055.87
2022-09-28T22:29:37.957Z,99054.59
2022-09-28T22:32:40.351Z,99054.09
2022-09-28T22:35:42.772Z,99043.09
2022-09-28T22:38:44.856Z,99048.25
2022-09-28T22:41:47.747Z,99042.28
2022-09-28T22:44:49.847Z,99049.94
2022-09-28T22:47:52.205Z,99044.16
2022-09-28T22:50:54.320Z,99046.13
2022-09-28T22:53:56.811Z,99044.62
2022-09-28T22:56:58.854Z,99051.38
2022-09-28T23:00:01.393Z,99058.53
2022-09-28T23:03:03.895Z,99057.00
2022-09-28T23:06:07.347Z,99042.94
2022-09-28T23:09:09.431Z,99044.56
2022-09-28T23:12:11.841Z,99046.28
2022-09-28T23:15:14.275Z,99054.19
2022-09-28T23:18:16.809Z,99050.09
2022-09-28T23:21:21.665Z,99048.72
2022-09-28T23:24:24.246Z,99048.41
2022-09-28T23:27:26.697Z,99049.63
2022-09-28T23:30:29.243Z,99040.91
2022-09-28T23:33:31.217Z,99033.00
2022-09-28T23:36:34.431Z,99030.97
2022-09-28T23:39:36.456Z,99030.50
2022-09-28T23:42:38.833Z,99041.50
2022-09-28T23:45:42.661Z,99039.63
2022-09-28T23:48:45.016Z,99042.13
2022-09-28T23:51:47.070Z,99043.63
2022-09-28T23:54:49.465Z,99054.28
2022-09-28T23:57:55.461Z,99055.25
